Time;durP1;ratioP1;P1;durP2;ratioP2;P2;SDS_P1;SDS_P2;PMS_P1;PMS_P2;Temp;Humidity;BMP_temperature;BMP_pressure;BME280_temperature;BME280_humidity;BME280_pressure;Samples;Min_cycle;Max_cycle;Signal;HPM_P1;HPM_P2
2023/07/06 00:02:00;;;;;;;7.32;3.10;;;;;;;;;;5227001;28;20029;-72
2023/07/06 00:04:30;;;;;;;13.27;3.92;;;;;;;;;;5226895;28;20021;-72
2023/07/06 00:07:00;;;;;;;6.78;3.60;;;;;;;;;;5226662;28;20092;-72
2023/07/06 00:09:35;;;;;;;7.43;3.80;;;;;;;;;;5226513;28;20017;-72
2023/07/06 00:12:05;;;;;;;12.55;3.38;;;;;;;;;;5227069;28;20027;-72
2023/07/06 00:14:36;;;;;;;15.25;3.85;;;;;;;;;;5226827;28;20108;-72
2023/07/06 00:17:08;;;;;;;17.48;3.70;;;;;;;;;;5224933;28;20040;-72
2023/07/06 00:19:39;;;;;;;16.38;4.03;;;;;;;;;;5215135;28;20040;-72
2023/07/06 00:22:10;;;;;;;12.48;3.38;;;;;;;;;;5226033;28;20040;-72
2023/07/06 00:24:42;;;;;;;12.00;4.00;;;;;;;;;;5226801;28;20446;-72
2023/07/06 00:27:15;;;;;;;15.32;4.32;;;;;;;;;;5226044;28;20051;-72
2023/07/06 00:29:56;;;;;;;4.65;2.83;;;;;;;;;;5226818;28;20067;-72
2023/07/06 00:32:27;;;;;;;9.77;3.72;;;;;;;;;;5226021;28;20095;-72
2023/07/06 00:34:59;;;;;;;14.10;4.05;;;;;;;;;;5226389;28;20119;-71
2023/07/06 00:37:29;;;;;;;13.48;3.60;;;;;;;;;;5226371;28;20087;-72
2023/07/06 00:40:00;;;;;;;9.65;3.80;;;;;;;;;;5226233;28;20408;-72
2023/07/06 00:42:31;;;;;;;9.75;3.67;;;;;;;;;;5226489;28;20262;-72
2023/07/06 00:45:01;;;;;;;11.52;3.47;;;;;;;;;;5225703;28;20013;-72
2023/07/06 00:47:34;;;;;;;13.07;3.53;;;;;;;;;;5225159;28;20024;-72
2023/07/06 00:50:07;;;;;;;11.30;3.60;;;;;;;;;;5225983;28;20017;-72
2023/07/06 00:52:40;;;;;;;13.75;3.53;;;;;;;;;;5224587;28;20017;-71
2023/07/06 00:55:12;;;;;;;17.73;3.92;;;;;;;;;;5224143;28;20386;-71
2023/07/06 00:57:44;;;;;;;16.33;3.78;;;;;;;;;;5225691;28;20115;-72
2023/07/06 01:00:20;;;;;;;12.68;4.00;;;;;;;;;;5225984;28;20029;-71
2023/07/06 01:02:53;;;;;;;16.92;4.32;;;;;;;;;;5225930;28;20036;-71
2023/07/06 01:05:25;;;;;;;11.15;3.65;;;;;;;;;;5226018;28;20493;-72
2023/07/06 01:07:58;;;;;;;12.60;3.50;;;;;;;;;;5225369;28;20025;-72
2023/07/06 01:10:29;;;;;;;6.95;3.53;;;;;;;;;;5226225;28;20017;-72
2023/07/06 01:13:00;;;;;;;11.18;3.70;;;;;;;;;;5225675;28;20021;-72
2023/07/06 01:15:34;;;;;;;12.27;3.40;;;;;;;;;;5225539;28;20024;-72
2023/07/06 01:18:19;;;;;;;11.35;4.00;;;;;;;;;;5223951;28;20025;-71
2023/07/06 01:20:53;;;;;;;11.07;4.32;;;;;;;;;;5225646;28;20059;-71
2023/07/06 01:23:40;;;;;;;18.90;4.43;;;;;;;;;;5225864;28;20043;-72
2023/07/06 01:26:13;;;;;;;6.82;3.40;;;;;;;;;;5225004;28;20486;-71
2023/07/06 01:28:53;;;;;;;14.18;4.00;;;;;;;;;;5224780;28;20020;-72
2023/07/06 01:31:24;;;;;;;8.57;3.50;;;;;;;;;;5225423;28;20016;-72
2023/07/06 01:33:59;;;;;;;15.60;3.70;;;;;;;;;;5225217;28;20017;-72
2023/07/06 01:36:34;;;;;;;12.98;4.95;;;;;;;;;;5224924;28;20027;-72
2023/07/06 01:39:21;;;;;;;30.98;4.45;;;;;;;;;;5224804;28;20078;-71
2023/07/06 01:42:03;;;;;;;17.70;3.85;;;;;;;;;;5225236;28;20481;-71
2023/07/06 01:44:34;;;;;;;14.57;4.43;;;;;;;;;;5225033;28;20017;-72
2023/07/06 01:47:05;;;;;;;10.05;3.63;;;;;;;;;;5224427;28;20108;-72
2023/07/06 01:49:36;;;;;;;11.30;3.65;;;;;;;;;;5224512;28;20100;-72
2023/07/06 01:52:12;;;;;;;14.80;4.45;;;;;;;;;;5224931;28;20092;-72
2023/07/06 01:54:47;;;;;;;12.45;4.47;;;;;;;;;;5223046;28;20548;-72
2023/07/06 01:57:33;;;;;;;15.05;4.45;;;;;;;;;;5213034;28;20017;-71
2023/07/06 02:00:07;;;;;;;13.52;3.90;;;;;;;;;;5224434;28;20040;-72
2023/07/06 02:02:39;;;;;;;8.90;3.72;;;;;;;;;;5224703;28;20036;-71
2023/07/06 02:05:12;;;;;;;5.85;3.40;;;;;;;;;;5224910;28;20025;-72
2023/07/06 02:07:43;;;;;;;18.83;4.63;;;;;;;;;;5224405;28;20025;-71
2023/07/06 02:10:15;;;;;;;14.35;3.78;;;;;;;;;;5224563;28;20063;-72
2023/07/06 02:12:47;;;;;;;15.02;3.85;;;;;;;;;;5224675;28;20049;-72
2023/07/06 02:15:19;;;;;;;8.90;3.65;;;;;;;;;;5224965;28;20074;-71
2023/07/06 02:17:50;;;;;;;13.50;3.90;;;;;;;;;;5223803;28;20355;-72
2023/07/06 02:20:21;;;;;;;17.48;5.28;;;;;;;;;;5224828;28;20013;-71
2023/07/06 02:22:51;;;;;;;11.57;3.80;;;;;;;;;;5224196;28;20024;-72
2023/07/06 02:25:22;;;;;;;28.08;4.40;;;;;;;;;;5224587;28;20033;-72
2023/07/06 02:27:53;;;;;;;14.05;4.10;;;;;;;;;;5224046;28;20013;-71
2023/07/06 02:30:23;;;;;;;15.68;3.78;;;;;;;;;;5224703;28;20024;-72
2023/07/06 02:32:53;;;;;;;22.42;4.28;;;;;;;;;;5224478;28;20099;-72
2023/07/06 02:35:23;;;;;;;16.38;4.20;;;;;;;;;;5224123;28;20025;-71
2023/07/06 02:37:54;;;;;;;18.15;3.53;;;;;;;;;;5224088;28;20471;-71
2023/07/06 02:40:24;;;;;;;15.05;3.90;;;;;;;;;;5224471;28;20035;-72
2023/07/06 02:42:56;;;;;;;14.23;3.75;;;;;;;;;;5224585;28;20492;-72
2023/07/06 02:45:27;;;;;;;10.95;3.75;;;;;;;;;;5224198;28;20025;-72
2023/07/06 02:47:58;;;;;;;11.85;4.25;;;;;;;;;;5223613;28;20059;-71
2023/07/06 02:50:28;;;;;;;17.45;3.92;;;;;;;;;;5224285;28;20056;-71
2023/07/06 02:52:59;;;;;;;20.75;4.45;;;;;;;;;;5224148;28;20056;-71
2023/07/06 02:55:32;;;;;;;17.38;4.70;;;;;;;;;;5221911;28;20470;-71
2023/07/06 02:58:02;;;;;;;13.80;3.78;;;;;;;;;;5223728;28;20031;-71
2023/07/06 03:00:33;;;;;;;15.52;4.18;;;;;;;;;;5224006;28;20361;-71
2023/07/06 03:03:03;;;;;;;22.17;4.57;;;;;;;;;;5224002;28;20070;-71
2023/07/06 03:05:35;;;;;;;17.42;4.40;;;;;;;;;;5224081;28;20044;-71
2023/07/06 03:08:06;;;;;;;13.65;3.88;;;;;;;;;;5223979;28;20424;-71
2023/07/06 03:10:38;;;;;;;32.25;5.15;;;;;;;;;;5227457;28;20323;-71
2023/07/06 03:13:08;;;;;;;14.00;4.50;;;;;;;;;;5228218;28;20100;-71
2023/07/06 03:15:40;;;;;;;20.08;4.38;;;;;;;;;;5227799;28;20112;-72
2023/07/06 03:18:10;;;;;;;14.23;4.43;;;;;;;;;;5227912;28;20032;-71
2023/07/06 03:20:41;;;;;;;24.38;4.57;;;;;;;;;;5227980;28;20025;-72
2023/07/06 03:23:11;;;;;;;17.27;4.15;;;;;;;;;;5227739;28;20105;-71
2023/07/06 03:25:41;;;;;;;22.95;4.85;;;;;;;;;;5227494;28;20029;-71
2023/07/06 03:28:12;;;;;;;18.77;4.32;;;;;;;;;;5227844;28;20017;-72
2023/07/06 03:30:43;;;;;;;17.13;4.47;;;;;;;;;;5227872;28;20025;-71
2023/07/06 03:33:13;;;;;;;16.10;4.28;;;;;;;;;;5227929;28;20017;-72
2023/07/06 03:35:43;;;;;;;14.63;4.30;;;;;;;;;;5226952;28;20025;-72
2023/07/06 03:38:14;;;;;;;14.20;4.20;;;;;;;;;;5227580;28;20025;-71
2023/07/06 03:40:47;;;;;;;14.68;4.35;;;;;;;;;;5228046;28;20071;-71
2023/07/06 03:43:19;;;;;;;19.67;4.85;;;;;;;;;;5227592;28;20025;-72
2023/07/06 03:45:49;;;;;;;18.90;4.47;;;;;;;;;;5227061;28;20108;-71
2023/07/06 03:48:21;;;;;;;18.48;5.20;;;;;;;;;;5226954;28;20147;-71
2023/07/06 03:50:52;;;;;;;20.83;5.20;;;;;;;;;;5227879;28;20021;-72
2023/07/06 03:53:22;;;;;;;19.92;5.82;;;;;;;;;;5227612;28;20398;-72
2023/07/06 03:55:53;;;;;;;15.77;4.20;;;;;;;;;;5225298;28;20075;-71
2023/07/06 03:58:23;;;;;;;20.60;5.10;;;;;;;;;;5227261;28;20534;-71
2023/07/06 04:00:56;;;;;;;12.70;4.40;;;;;;;;;;5226968;28;20189;-72
2023/07/06 04:03:26;;;;;;;18.73;4.95;;;;;;;;;;5227211;28;20071;-72
2023/07/06 04:05:57;;;;;;;17.13;4.93;;;;;;;;;;5226598;28;20106;-72
2023/07/06 04:08:28;;;;;;;12.65;4.07;;;;;;;;;;5227223;28;20159;-71
2023/07/06 04:10:58;;;;;;;16.08;4.45;;;;;;;;;;5227050;28;20100;-71
2023/07/06 04:13:29;;;;;;;25.63;4.40;;;;;;;;;;5226840;28;20467;-71
2023/07/06 04:16:00;;;;;;;23.25;4.40;;;;;;;;;;5226528;28;20040;-71
2023/07/06 04:18:31;;;;;;;13.13;4.35;;;;;;;;;;5227000;28;20114;-71
2023/07/06 04:21:01;;;;;;;19.42;5.03;;;;;;;;;;5225721;28;20071;-71
2023/07/06 04:23:32;;;;;;;22.48;5.47;;;;;;;;;;5226813;28;20059;-71
2023/07/06 04:26:02;;;;;;;14.80;4.70;;;;;;;;;;5226177;28;20032;-71
2023/07/06 04:28:33;;;;;;;13.27;4.47;;;;;;;;;;5226748;28;20049;-71
2023/07/06 04:31:03;;;;;;;14.95;4.75;;;;;;;;;;5226661;28;20017;-72
2023/07/06 04:33:33;;;;;;;14.82;4.40;;;;;;;;;;5226556;28;20098;-71
2023/07/06 04:36:04;;;;;;;16.35;4.40;;;;;;;;;;5226129;28;20497;-71
2023/07/06 04:38:34;;;;;;;17.02;5.35;;;;;;;;;;5226310;28;20501;-72
2023/07/06 04:41:05;;;;;;;19.92;4.63;;;;;;;;;;5226605;28;20024;-72
2023/07/06 04:43:35;;;;;;;21.92;5.30;;;;;;;;;;5226446;28;20482;-72
2023/07/06 04:46:05;;;;;;;20.83;5.35;;;;;;;;;;5226120;28;20052;-71
2023/07/06 04:48:36;;;;;;;21.13;5.75;;;;;;;;;;5225818;28;20028;-72
2023/07/06 04:51:08;;;;;;;24.40;5.78;;;;;;;;;;5226597;28;20029;-72
2023/07/06 04:53:39;;;;;;;19.50;4.65;;;;;;;;;;5226268;28;20082;-72
2023/07/06 04:56:09;;;;;;;14.23;3.92;;;;;;;;;;5223631;28;20025;-72
2023/07/06 04:58:41;;;;;;;21.42;5.40;;;;;;;;;;5226053;28;20020;-71
2023/07/06 05:01:11;;;;;;;18.30;5.50;;;;;;;;;;5225751;28;20032;-72
2023/07/06 05:03:42;;;;;;;16.73;4.10;;;;;;;;;;5225941;28;20033;-72
2023/07/06 05:06:13;;;;;;;20.50;5.13;;;;;;;;;;5225702;28;20433;-72
2023/07/06 05:08:43;;;;;;;15.98;4.28;;;;;;;;;;5225997;28;20017;-71
2023/07/06 05:11:13;;;;;;;20.15;4.75;;;;;;;;;;5224695;28;20024;-72
2023/07/06 05:13:44;;;;;;;16.27;5.00;;;;;;;;;;5225486;28;20041;-72
2023/07/06 05:16:15;;;;;;;13.27;4.72;;;;;;;;;;5225392;28;20035;-72
2023/07/06 05:18:46;;;;;;;13.98;4.63;;;;;;;;;;5225774;28;20021;-72
2023/07/06 05:21:16;;;;;;;21.30;4.60;;;;;;;;;;5225403;28;20474;-72
2023/07/06 05:23:47;;;;;;;22.98;5.40;;;;;;;;;;5225606;28;20021;-72
2023/07/06 05:26:19;;;;;;;18.90;4.43;;;;;;;;;;5224988;28;20108;-72
2023/07/06 05:28:50;;;;;;;28.05;4.53;;;;;;;;;;5225216;28;20028;-71
2023/07/06 05:31:21;;;;;;;17.42;4.82;;;;;;;;;;5225683;28;20045;-72
2023/07/06 05:33:51;;;;;;;16.33;4.53;;;;;;;;;;5225451;28;20044;-71
2023/07/06 05:36:21;;;;;;;18.23;5.28;;;;;;;;;;5225127;28;20092;-72
2023/07/06 05:38:52;;;;;;;16.80;4.88;;;;;;;;;;5224883;28;20032;-72
2023/07/06 05:41:22;;;;;;;17.92;4.70;;;;;;;;;;5225342;28;20025;-71
2023/07/06 05:44:11;;;;;;;22.02;4.68;;;;;;;;;;5225273;28;20538;-71
2023/07/06 05:46:41;;;;;;;18.17;4.68;;;;;;;;;;5225198;28;20033;-71
2023/07/06 05:49:11;;;;;;;26.73;6.32;;;;;;;;;;5224609;28;20516;-72
2023/07/06 05:51:42;;;;;;;18.38;4.82;;;;;;;;;;5225192;28;20028;-72
2023/07/06 05:54:12;;;;;;;21.13;4.45;;;;;;;;;;5224015;28;20501;-71
2023/07/06 05:56:42;;;;;;;17.70;4.97;;;;;;;;;;5222311;28;20071;-72
2023/07/06 05:59:13;;;;;;;16.10;4.70;;;;;;;;;;5224991;28;20048;-71
2023/07/06 06:01:43;;;;;;;20.38;5.75;;;;;;;;;;5224469;28;20036;-71
2023/07/06 06:04:13;;;;;;;20.65;5.15;;;;;;;;;;5224821;28;20029;-71
2023/07/06 06:06:46;;;;;;;18.10;4.22;;;;;;;;;;5224676;28;20017;-72
2023/07/06 06:09:16;;;;;;;13.18;4.53;;;;;;;;;;5224675;28;20017;-72
2023/07/06 06:11:48;;;;;;;13.65;4.00;;;;;;;;;;5223931;28;20013;-72
2023/07/06 06:14:19;;;;;;;14.43;3.50;;;;;;;;;;5224489;28;20027;-71
2023/07/06 06:16:50;;;;;;;18.60;4.32;;;;;;;;;;5224319;28;20029;-72
2023/07/06 06:19:20;;;;;;;21.23;3.95;;;;;;;;;;5224520;28;20044;-72
2023/07/06 06:21:50;;;;;;;20.98;3.60;;;;;;;;;;5225034;28;20024;-72
2023/07/06 06:24:22;;;;;;;9.63;3.67;;;;;;;;;;5224374;28;20029;-72
2023/07/06 06:26:52;;;;;;;9.45;2.90;;;;;;;;;;5223973;28;20140;-72
2023/07/06 06:29:22;;;;;;;15.98;3.92;;;;;;;;;;5224358;28;20216;-72
2023/07/06 06:31:54;;;;;;;11.13;3.80;;;;;;;;;;5224705;28;20020;-72
2023/07/06 06:34:24;;;;;;;14.50;3.75;;;;;;;;;;5224488;28;20028;-72
2023/07/06 06:36:55;;;;;;;16.85;4.22;;;;;;;;;;5223794;28;20017;-72
2023/07/06 06:39:26;;;;;;;17.73;4.03;;;;;;;;;;5224508;28;20017;-72
2023/07/06 06:41:56;;;;;;;10.25;3.22;;;;;;;;;;5224345;28;20525;-72
2023/07/06 06:44:28;;;;;;;19.23;4.15;;;;;;;;;;5226031;28;20126;-72
2023/07/06 06:47:01;;;;;;;18.33;3.85;;;;;;;;;;5228311;28;20024;-72
2023/07/06 06:49:33;;;;;;;12.38;3.75;;;;;;;;;;5228200;28;20025;-72
2023/07/06 06:52:04;;;;;;;14.65;3.15;;;;;;;;;;5228774;28;20028;-72
2023/07/06 06:54:34;;;;;;;11.80;3.00;;;;;;;;;;5227780;28;20029;-72
2023/07/06 06:57:05;;;;;;;15.82;3.67;;;;;;;;;;5226962;28;20021;-72
2023/07/06 06:59:35;;;;;;;12.55;3.80;;;;;;;;;;5228503;28;20474;-72
2023/07/06 07:02:06;;;;;;;20.35;4.05;;;;;;;;;;5228061;28;20035;-72
2023/07/06 07:04:38;;;;;;;20.80;3.92;;;;;;;;;;5228537;28;20100;-72
2023/07/06 07:07:08;;;;;;;17.00;3.55;;;;;;;;;;5228323;28;20028;-72
2023/07/06 07:09:39;;;;;;;18.05;3.38;;;;;;;;;;5228198;28;20382;-72
2023/07/06 07:12:09;;;;;;;15.57;3.13;;;;;;;;;;5228428;28;20024;-72
2023/07/06 07:14:39;;;;;;;12.85;3.40;;;;;;;;;;5227764;28;20029;-71
2023/07/06 07:17:10;;;;;;;10.90;3.17;;;;;;;;;;5227637;28;20091;-72
2023/07/06 07:19:41;;;;;;;9.85;3.38;;;;;;;;;;5227895;28;20024;-71
2023/07/06 07:22:11;;;;;;;17.25;3.72;;;;;;;;;;5228082;28;20191;-72
2023/07/06 07:24:42;;;;;;;15.73;3.00;;;;;;;;;;5227983;28;20482;-72
2023/07/06 07:27:12;;;;;;;13.57;3.70;;;;;;;;;;5227267;28;20063;-72
2023/07/06 07:29:43;;;;;;;11.45;3.35;;;;;;;;;;5227867;28;20108;-72
2023/07/06 07:32:14;;;;;;;17.70;4.53;;;;;;;;;;5227984;28;20103;-72
2023/07/06 07:34:44;;;;;;;17.55;3.42;;;;;;;;;;5227934;28;20104;-72
2023/07/06 07:37:15;;;;;;;14.05;3.70;;;;;;;;;;5227887;28;20032;-72
2023/07/06 07:39:46;;;;;;;16.15;4.05;;;;;;;;;;5227412;28;20032;-72
2023/07/06 07:42:16;;;;;;;15.60;3.22;;;;;;;;;;5228149;28;20033;-72
2023/07/06 07:44:46;;;;;;;11.23;3.10;;;;;;;;;;5227698;28;20021;-72
2023/07/06 07:47:18;;;;;;;14.27;2.60;;;;;;;;;;5227292;28;20029;-72
2023/07/06 07:49:49;;;;;;;12.23;3.30;;;;;;;;;;5227389;28;20136;-72
2023/07/06 07:52:19;;;;;;;11.68;3.13;;;;;;;;;;5214455;28;20521;-72
2023/07/06 07:54:52;;;;;;;11.15;3.08;;;;;;;;;;5225033;28;20013;-72
2023/07/06 07:57:22;;;;;;;19.92;3.10;;;;;;;;;;5227111;28;20031;-72
2023/07/06 07:59:53;;;;;;;11.65;3.25;;;;;;;;;;5227260;28;20104;-72
2023/07/06 08:02:23;;;;;;;12.73;2.95;;;;;;;;;;5226887;28;20025;-72
2023/07/06 08:04:53;;;;;;;16.40;3.53;;;;;;;;;;5227369;28;20359;-73
2023/07/06 08:07:25;;;;;;;12.02;2.78;;;;;;;;;;5227227;28;20029;-72
2023/07/06 08:09:55;;;;;;;10.40;3.10;;;;;;;;;;5227445;28;20493;-72
2023/07/06 08:12:25;;;;;;;13.45;3.00;;;;;;;;;;5227154;28;20021;-72
2023/07/06 08:14:56;;;;;;;6.68;2.65;;;;;;;;;;5226810;28;20021;-73
2023/07/06 08:17:26;;;;;;;9.52;2.80;;;;;;;;;;5226554;28;20103;-72
2023/07/06 08:19:56;;;;;;;13.02;3.45;;;;;;;;;;5226858;28;20075;-73
2023/07/06 08:22:28;;;;;;;13.48;2.90;;;;;;;;;;5227326;28;20029;-72
2023/07/06 08:24:59;;;;;;;12.60;3.08;;;;;;;;;;5226676;28;20096;-73
2023/07/06 08:27:30;;;;;;;10.45;2.58;;;;;;;;;;5226030;28;20021;-72
2023/07/06 08:30:00;;;;;;;12.77;2.72;;;;;;;;;;5226811;28;20095;-72
2023/07/06 08:32:33;;;;;;;13.13;3.33;;;;;;;;;;5226841;28;20060;-72
2023/07/06 08:35:04;;;;;;;9.25;2.40;;;;;;;;;;5226575;28;20017;-72
2023/07/06 08:37:34;;;;;;;14.02;2.90;;;;;;;;;;5226332;28;20031;-73
2023/07/06 08:40:05;;;;;;;8.90;2.42;;;;;;;;;;5226134;28;20021;-72
2023/07/06 08:42:35;;;;;;;7.28;2.42;;;;;;;;;;5226661;28;20012;-72
2023/07/06 08:45:12;;;;;;;11.90;3.55;;;;;;;;;;5226364;28;20024;-72
2023/07/06 08:47:44;;;;;;;9.77;2.92;;;;;;;;;;5226133;28;20032;-72
2023/07/06 08:50:15;;;;;;;7.45;2.53;;;;;;;;;;5225859;28;20017;-73
2023/07/06 08:52:48;;;;;;;13.65;2.60;;;;;;;;;;5226246;28;20017;-73
2023/07/06 08:55:18;;;;;;;9.13;2.95;;;;;;;;;;5223949;28;20020;-73
2023/07/06 08:57:49;;;;;;;9.60;2.65;;;;;;;;;;5225897;28;20020;-73
2023/07/06 09:00:23;;;;;;;11.93;2.88;;;;;;;;;;5226334;28;20065;-73
2023/07/06 09:02:55;;;;;;;11.55;3.13;;;;;;;;;;5225972;28;20043;-73
2023/07/06 09:05:31;;;;;;;5.95;2.15;;;;;;;;;;5226108;28;20470;-73
2023/07/06 09:08:01;;;;;;;10.77;2.45;;;;;;;;;;5217929;28;20044;-73
2023/07/06 09:10:32;;;;;;;9.90;2.65;;;;;;;;;;5222427;28;20052;-73
2023/07/06 09:13:22;;;;;;;10.00;2.30;;;;;;;;;;5226022;28;20071;-73
2023/07/06 09:15:55;;;;;;;9.05;2.47;;;;;;;;;;5225429;28;20053;-73
2023/07/06 09:18:25;;;;;;;11.82;2.97;;;;;;;;;;5225346;28;20017;-73
2023/07/06 09:20:57;;;;;;;10.52;2.88;;;;;;;;;;5225728;28;20021;-73
2023/07/06 09:23:28;;;;;;;8.20;2.42;;;;;;;;;;5225751;28;20095;-73
2023/07/06 09:25:58;;;;;;;9.13;2.38;;;;;;;;;;5224727;28;20063;-73
2023/07/06 09:28:29;;;;;;;8.13;2.28;;;;;;;;;;5225729;28;20472;-73
2023/07/06 09:31:18;;;;;;;7.57;2.22;;;;;;;;;;5225315;28;20033;-73
2023/07/06 09:33:49;;;;;;;8.40;2.22;;;;;;;;;;5225400;28;20033;-73
2023/07/06 09:36:23;;;;;;;5.00;1.98;;;;;;;;;;5224575;28;20028;-73
2023/07/06 09:39:00;;;;;;;8.18;2.35;;;;;;;;;;5225195;28;20397;-71
2023/07/06 09:41:32;;;;;;;4.40;1.98;;;;;;;;;;5225761;28;20025;-73
2023/07/06 09:44:03;;;;;;;8.40;1.98;;;;;;;;;;5225443;28;20079;-73
2023/07/06 09:46:35;;;;;;;14.52;2.75;;;;;;;;;;5224926;28;20531;-70
2023/07/06 09:49:26;;;;;;;7.38;2.63;;;;;;;;;;5225058;28;20053;-71
2023/07/06 09:51:59;;;;;;;8.43;2.50;;;;;;;;;;5225098;28;20363;-71
2023/07/06 09:54:50;;;;;;;7.78;2.30;;;;;;;;;;5224974;28;20378;-71
2023/07/06 09:57:23;;;;;;;7.30;2.15;;;;;;;;;;5214196;28;20512;-71
2023/07/06 09:59:53;;;;;;;6.28;1.80;;;;;;;;;;5225118;28;20482;-71
2023/07/06 10:02:31;;;;;;;8.10;2.22;;;;;;;;;;5224992;28;20037;-71
2023/07/06 10:05:09;;;;;;;8.25;2.10;;;;;;;;;;5225210;28;20096;-71
2023/07/06 10:07:58;;;;;;;4.95;2.08;;;;;;;;;;5224117;28;20389;-71
2023/07/06 10:10:30;;;;;;;8.27;1.63;;;;;;;;;;5224761;28;20029;-71
2023/07/06 10:13:03;;;;;;;6.68;2.03;;;;;;;;;;5224773;28;20024;-72
2023/07/06 10:15:39;;;;;;;7.60;2.30;;;;;;;;;;5224702;28;20483;-72
2023/07/06 10:18:13;;;;;;;11.38;2.30;;;;;;;;;;5222982;28;20429;-72
2023/07/06 10:20:49;;;;;;;6.75;2.03;;;;;;;;;;5224606;28;20108;-72
2023/07/06 10:23:19;;;;;;;8.35;2.53;;;;;;;;;;5225362;28;20526;-72
2023/07/06 10:26:08;;;;;;;7.18;1.95;;;;;;;;;;5224165;28;20108;-72
2023/07/06 10:28:42;;;;;;;5.13;2.15;;;;;;;;;;5224616;28;20086;-72
2023/07/06 10:31:16;;;;;;;6.72;1.80;;;;;;;;;;5224780;28;20021;-72
2023/07/06 10:34:00;;;;;;;8.50;1.70;;;;;;;;;;5224552;28;20025;-72
2023/07/06 10:36:32;;;;;;;7.45;1.73;;;;;;;;;;5223770;28;20025;-72
2023/07/06 10:39:11;;;;;;;5.38;1.70;;;;;;;;;;5224465;28;20021;-72
2023/07/06 10:41:48;;;;;;;6.53;2.00;;;;;;;;;;5224582;28;20086;-72
2023/07/06 10:44:40;;;;;;;4.82;1.80;;;;;;;;;;5224632;28;20100;-72
2023/07/06 10:47:29;;;;;;;8.45;2.20;;;;;;;;;;5223649;28;20120;-72
2023/07/06 10:50:19;;;;;;;7.32;1.92;;;;;;;;;;5224173;28;20018;-72
2023/07/06 10:53:10;;;;;;;9.98;2.33;;;;;;;;;;5224342;28;20025;-72
2023/07/06 10:55:41;;;;;;;6.97;2.10;;;;;;;;;;5214012;28;20025;-71
2023/07/06 10:58:24;;;;;;;11.43;2.22;;;;;;;;;;5219441;28;20448;-72
2023/07/06 11:00:56;;;;;;;6.47;2.00;;;;;;;;;;5224295;28;20027;-72
2023/07/06 11:03:28;;;;;;;13.55;2.38;;;;;;;;;;5224382;28;20045;-72
2023/07/06 11:06:15;;;;;;;4.85;1.90;;;;;;;;;;5223403;28;20360;-72
2023/07/06 11:09:03;;;;;;;8.60;2.47;;;;;;;;;;5224353;28;20024;-72
2023/07/06 11:11:38;;;;;;;10.30;1.80;;;;;;;;;;5223480;28;20497;-72
2023/07/06 11:14:19;;;;;;;11.63;2.53;;;;;;;;;;5223850;28;20013;-72
2023/07/06 11:16:56;;;;;;;11.25;2.58;;;;;;;;;;5223653;28;20490;-72
2023/07/06 11:19:28;;;;;;;9.25;2.08;;;;;;;;;;5224081;28;20024;-72
2023/07/06 11:22:03;;;;;;;5.32;2.03;;;;;;;;;;5224131;28;20021;-72
2023/07/06 11:24:38;;;;;;;8.00;1.88;;;;;;;;;;5223608;28;20029;-72
2023/07/06 11:27:18;;;;;;;6.57;1.75;;;;;;;;;;5223701;28;20074;-72
2023/07/06 11:29:48;;;;;;;4.93;1.80;;;;;;;;;;5223477;28;20029;-72
2023/07/06 11:32:29;;;;;;;2.63;1.50;;;;;;;;;;5227994;28;20021;-72
2023/07/06 11:35:18;;;;;;;5.93;2.00;;;;;;;;;;5227444;28;20150;-72
2023/07/06 11:37:49;;;;;;;7.55;2.17;;;;;;;;;;5215244;28;20025;-72
2023/07/06 11:40:20;;;;;;;5.47;2.20;;;;;;;;;;5227745;28;20101;-72
2023/07/06 11:42:59;;;;;;;4.72;1.63;;;;;;;;;;5227815;28;20025;-72
2023/07/06 11:45:46;;;;;;;5.60;1.77;;;;;;;;;;5227191;28;20043;-72
2023/07/06 11:48:17;;;;;;;5.32;2.03;;;;;;;;;;5227322;28;20017;-72
2023/07/06 11:50:48;;;;;;;4.53;1.80;;;;;;;;;;5227561;28;20029;-72
2023/07/06 11:53:29;;;;;;;9.95;2.15;;;;;;;;;;5227416;28;20109;-72
2023/07/06 12:01:42;;;;;;;6.40;1.80;;;;;;;;;;5227226;28;20032;-70
2023/07/06 12:04:33;;;;;;;4.07;1.45;;;;;;;;;;5227112;28;20025;-70
2023/07/06 12:07:08;;;;;;;4.50;1.77;;;;;;;;;;5216290;28;20020;-70
2023/07/06 12:09:38;;;;;;;4.80;1.80;;;;;;;;;;5227116;28;20090;-71
2023/07/06 12:12:12;;;;;;;4.40;1.83;;;;;;;;;;5227361;28;20067;-70
2023/07/06 12:14:43;;;;;;;2.63;1.52;;;;;;;;;;5226720;28;20021;-71
2023/07/06 12:17:14;;;;;;;3.75;1.60;;;;;;;;;;5226614;28;20019;-70
2023/07/06 12:19:45;;;;;;;5.95;1.73;;;;;;;;;;5226975;28;20025;-71
2023/07/06 12:22:16;;;;;;;5.47;1.75;;;;;;;;;;5227512;28;20025;-71
2023/07/06 12:24:47;;;;;;;8.32;2.03;;;;;;;;;;5227434;28;20450;-71
2023/07/06 12:27:17;;;;;;;7.18;1.80;;;;;;;;;;5226434;28;20021;-71
2023/07/06 12:29:48;;;;;;;5.07;1.58;;;;;;;;;;5227077;28;20549;-71
2023/07/06 12:32:19;;;;;;;8.48;1.83;;;;;;;;;;5226706;28;20028;-71
2023/07/06 12:34:52;;;;;;;6.55;1.73;;;;;;;;;;5226871;28;20093;-71
2023/07/06 12:37:23;;;;;;;9.43;2.20;;;;;;;;;;5225854;28;20039;-70
2023/07/06 12:39:55;;;;;;;6.70;1.52;;;;;;;;;;5226460;28;20024;-71
2023/07/06 12:42:25;;;;;;;12.98;2.55;;;;;;;;;;5225783;28;20035;-70
2023/07/06 12:44:57;;;;;;;6.07;1.65;;;;;;;;;;5226414;28;20025;-70
2023/07/06 12:47:46;;;;;;;3.70;1.48;;;;;;;;;;5226081;28;20131;-70
2023/07/06 12:50:19;;;;;;;6.05;2.20;;;;;;;;;;5226246;28;20021;-70
2023/07/06 12:52:49;;;;;;;6.60;1.90;;;;;;;;;;5226328;28;20478;-71
2023/07/06 12:55:21;;;;;;;7.03;1.95;;;;;;;;;;5219486;28;20037;-70
2023/07/06 12:57:53;;;;;;;8.38;1.95;;;;;;;;;;5219385;28;20021;-70
2023/07/06 13:00:24;;;;;;;4.85;1.75;;;;;;;;;;5226087;28;20021;-70
2023/07/06 13:02:56;;;;;;;7.80;1.75;;;;;;;;;;5225985;28;20033;-71
2023/07/06 13:05:28;;;;;;;7.28;2.35;;;;;;;;;;5225944;28;20021;-71
2023/07/06 13:08:05;;;;;;;8.20;1.73;;;;;;;;;;5225849;28;20359;-70
2023/07/06 13:10:36;;;;;;;6.50;2.20;;;;;;;;;;5225986;28;20009;-70
2023/07/06 13:13:17;;;;;;;7.15;1.95;;;;;;;;;;5225989;28;20013;-71
2023/07/06 13:15:55;;;;;;;7.20;2.03;;;;;;;;;;5225489;28;20048;-71
2023/07/06 13:18:25;;;;;;;4.82;1.85;;;;;;;;;;5225579;28;20031;-71
2023/07/06 13:20:56;;;;;;;10.88;2.30;;;;;;;;;;5226142;28;20402;-71
2023/07/06 13:23:28;;;;;;;5.53;2.35;;;;;;;;;;5225520;28;20364;-71
2023/07/06 13:25:58;;;;;;;5.95;2.10;;;;;;;;;;5225261;28;20021;-71
2023/07/06 13:28:28;;;;;;;11.00;2.15;;;;;;;;;;5225608;28;20367;-70
2023/07/06 13:30:59;;;;;;;5.70;1.98;;;;;;;;;;5225660;28;20013;-71
2023/07/06 13:33:29;;;;;;;10.23;2.40;;;;;;;;;;5225427;28;20036;-70
2023/07/06 13:36:00;;;;;;;7.18;2.13;;;;;;;;;;5224922;28;20082;-71
2023/07/06 13:38:30;;;;;;;5.18;2.00;;;;;;;;;;5225343;28;20025;-71
2023/07/06 13:41:02;;;;;;;3.60;1.65;;;;;;;;;;5225842;28;20480;-71
2023/07/06 13:43:32;;;;;;;4.78;2.10;;;;;;;;;;5225390;28;20017;-71
2023/07/06 13:46:03;;;;;;;5.40;2.40;;;;;;;;;;5224743;28;20032;-71
2023/07/06 13:48:33;;;;;;;10.77;2.05;;;;;;;;;;5225267;28;20017;-71
2023/07/06 13:51:05;;;;;;;6.15;1.85;;;;;;;;;;5225393;28;20429;-71
2023/07/06 13:53:36;;;;;;;6.18;2.10;;;;;;;;;;5225120;28;20092;-71
2023/07/06 13:56:09;;;;;;;7.97;2.33;;;;;;;;;;5211058;28;20028;-71
2023/07/06 13:58:42;;;;;;;6.35;2.20;;;;;;;;;;5224765;28;20025;-71
2023/07/06 14:01:13;;;;;;;8.32;2.33;;;;;;;;;;5224935;28;20090;-71
2023/07/06 14:03:44;;;;;;;4.93;2.25;;;;;;;;;;5225034;28;20025;-71
2023/07/06 14:06:14;;;;;;;11.65;3.15;;;;;;;;;;5224408;28;20033;-71
2023/07/06 14:08:44;;;;;;;8.85;2.05;;;;;;;;;;5224856;28;20052;-71
2023/07/06 14:11:15;;;;;;;7.53;2.30;;;;;;;;;;5224333;28;20025;-71
2023/07/06 14:13:46;;;;;;;7.30;1.90;;;;;;;;;;5223713;28;20063;-71
2023/07/06 14:16:16;;;;;;;6.93;1.90;;;;;;;;;;5224175;28;20045;-71
2023/07/06 14:18:48;;;;;;;5.45;2.05;;;;;;;;;;5224758;28;20498;-71
2023/07/06 14:21:20;;;;;;;8.70;1.88;;;;;;;;;;5211674;28;20024;-70
2023/07/06 14:23:51;;;;;;;5.05;2.22;;;;;;;;;;5224390;28;20355;-71
2023/07/06 14:26:21;;;;;;;3.50;1.83;;;;;;;;;;5224554;28;20071;-70
2023/07/06 14:28:52;;;;;;;8.98;2.30;;;;;;;;;;5224471;28;20009;-71
2023/07/06 14:31:24;;;;;;;6.82;1.80;;;;;;;;;;5224749;28;20021;-71
2023/07/06 14:33:54;;;;;;;4.40;1.70;;;;;;;;;;5224304;28;20024;-71
2023/07/06 14:36:25;;;;;;;8.13;2.42;;;;;;;;;;5224170;28;20032;-70
2023/07/06 14:38:56;;;;;;;5.68;1.70;;;;;;;;;;5224290;28;20066;-70
2023/07/06 14:41:26;;;;;;;5.55;2.00;;;;;;;;;;5224750;28;20336;-70
2023/07/06 14:43:56;;;;;;;4.18;1.98;;;;;;;;;;5224723;28;20171;-70
2023/07/06 14:46:27;;;;;;;6.00;1.90;;;;;;;;;;5223683;28;20029;-70
2023/07/06 14:48:57;;;;;;;6.53;1.85;;;;;;;;;;5224400;28;20521;-70
2023/07/06 14:51:27;;;;;;;2.33;1.27;;;;;;;;;;5224454;28;20040;-70
2023/07/06 14:53:58;;;;;;;4.60;2.03;;;;;;;;;;5224326;28;20063;-71
2023/07/06 14:56:28;;;;;;;4.13;2.25;;;;;;;;;;5210654;28;20025;-71
2023/07/06 14:58:58;;;;;;;3.47;1.80;;;;;;;;;;5224118;28;20021;-71
2023/07/06 15:01:29;;;;;;;4.93;1.92;;;;;;;;;;5224156;28;20040;-70
2023/07/06 15:03:59;;;;;;;5.85;2.00;;;;;;;;;;5224436;28;20051;-71
2023/07/06 15:06:29;;;;;;;7.88;1.83;;;;;;;;;;5227020;28;20223;-71
2023/07/06 15:09:00;;;;;;;5.72;2.00;;;;;;;;;;5228156;28;20028;-71
2023/07/06 15:11:30;;;;;;;5.45;1.80;;;;;;;;;;5228144;28;20071;-71
2023/07/06 15:14:00;;;;;;;4.03;1.77;;;;;;;;;;5228110;28;20048;-71